Time;durP1;ratioP1;P1;durP2;ratioP2;P2;SDS_P1;SDS_P2;PMS_P1;PMS_P2;Temp;Humidity;BMP_temperature;BMP_pressure;BME280_temperature;BME280_humidity;BME280_pressure;Samples;Min_cycle;Max_cycle;Signal;HPM_P1;HPM_P2
2022/01/21 00:00:20;;;;;;;0.60;0.40;;;-1.40;1.40;;;-0.94;100.00;96349.02;620968;226;31999;-77
2022/01/21 00:03:02;;;;;;;3.20;0.90;;;-1.40;1.40;;;-0.97;100.00;96349.06;649672;216;31555;-77
2022/01/21 00:05:43;;;;;;;0.50;0.50;;;-1.30;1.40;;;-0.90;100.00;96350.30;642890;216;31705;-77
2022/01/21 00:08:25;;;;;;;0.55;0.52;;;-1.30;1.40;;;-0.83;100.00;96346.75;619161;226;31994;-78
2022/01/21 00:11:07;;;;;;;0.90;0.60;;;-1.20;1.40;;;-0.77;100.00;96349.47;645339;216;31687;-77
2022/01/21 00:13:49;;;;;;;0.50;0.50;;;-1.20;1.40;;;-0.79;100.00;96353.59;647916;216;31707;-77
2022/01/21 00:16:32;;;;;;;0.80;0.80;;;-1.20;1.40;;;-0.87;100.00;96352.62;647593;212;31665;-77
2022/01/21 00:19:16;;;;;;;1.17;0.65;;;-1.30;1.40;;;-0.96;100.00;96336.34;648108;216;42090;-76
2022/01/21 00:30:33;;;;;;;0.55;0.37;;;-1.40;1.40;;;-0.97;100.00;96337.63;652558;216;31812;-77
2022/01/21 00:35:58;;;;;;;1.17;0.80;;;-1.30;1.40;;;-0.93;100.00;96344.47;645731;216;31546;-77
2022/01/21 00:38:41;;;;;;;1.60;0.82;;;-1.30;1.40;;;-0.95;100.00;96348.52;618289;222;31893;-77
2022/01/21 00:41:24;;;;;;;0.60;0.40;;;-1.30;1.40;;;-0.93;100.00;96349.42;620984;222;31877;-78
2022/01/21 00:44:01;;;;;;;1.30;0.60;;;-1.30;1.40;;;-0.92;100.00;96350.47;647856;216;31532;-77
2022/01/21 00:46:43;;;;;;;0.70;0.30;;;-1.30;1.40;;;-0.89;100.00;96355.73;651699;212;31516;-77
2022/01/21 00:49:34;;;;;;;0.80;0.80;;;-1.30;1.40;;;-0.92;100.00;96354.59;647046;216;31495;-74
2022/01/21 00:52:18;;;;;;;0.50;0.50;;;-1.30;1.40;;;-0.94;100.00;96364.73;654012;212;32213;-76
2022/01/21 00:54:59;;;;;;;5.20;0.90;;;-1.30;1.40;;;-0.93;100.00;96365.33;651382;212;32499;-77
2022/01/21 00:57:41;;;;;;;3.00;0.50;;;-1.30;1.40;;;-0.93;100.00;96362.30;652588;212;31504;-77
2022/01/21 01:00:23;;;;;;;0.90;0.50;;;-1.20;1.40;;;-0.92;100.00;96366.37;649035;216;31476;-77
2022/01/21 01:03:05;;;;;;;2.47;1.08;;;-1.20;1.40;;;-0.86;100.00;96362.32;646533;212;32051;-77
2022/01/21 01:05:47;;;;;;;0.50;0.40;;;-1.20;1.40;;;-0.86;100.00;96373.24;643234;212;31669;-77
2022/01/21 01:08:29;;;;;;;0.45;0.45;;;-1.20;1.40;;;-0.79;100.00;96369.62;651538;216;32603;-77
2022/01/21 01:11:19;;;;;;;0.70;0.70;;;-1.20;1.40;;;-0.66;100.00;96369.91;645495;216;31520;-77
2022/01/21 01:22:44;;;;;;;0.85;0.70;;;-1.10;1.40;;;-0.72;100.00;96378.38;621146;222;31820;-78
2022/01/21 01:28:17;;;;;;;1.90;0.80;;;-1.10;1.40;;;-0.74;100.00;96374.30;645351;212;31544;-77
2022/01/21 01:31:05;;;;;;;1.00;0.50;;;-1.10;1.40;;;-0.69;100.00;96375.80;645763;216;31536;-74
2022/01/21 01:35:57;;;;;;;0.40;0.40;;;-1.10;1.40;;;-0.67;100.00;96374.23;650898;216;31688;-73
2022/01/21 01:39:00;;;;;;;1.95;1.12;;;-1.10;1.40;;;-0.69;100.00;96381.23;649192;212;31597;-73
2022/01/21 01:41:36;;;;;;;0.82;0.82;;;-1.00;1.40;;;-0.66;100.00;96380.00;618433;226;31870;-77
2022/01/21 01:50:01;;;;;;;0.70;0.50;;;-1.10;1.40;;;-0.62;100.00;96386.27;619929;226;31868;-74
2022/01/21 01:52:46;;;;;;;1.40;1.00;;;-1.00;1.40;;;-0.59;100.00;96393.67;649945;212;31561;-74
2022/01/21 01:55:28;;;;;;;6.00;1.50;;;-1.00;1.40;;;-0.61;100.00;96401.41;645709;212;31787;-74
2022/01/21 01:58:12;;;;;;;0.70;0.40;;;-1.00;1.40;;;-0.56;100.00;96401.19;647880;212;31668;-76
2022/01/21 02:00:51;;;;;;;2.30;0.70;;;-1.10;1.40;;;-0.57;100.00;96397.59;647172;216;31520;-75
2022/01/21 02:03:39;;;;;;;0.90;0.70;;;-1.10;1.40;;;-0.63;100.00;96397.59;647542;212;32026;-78
2022/01/21 02:06:27;;;;;;;0.55;0.52;;;-1.10;1.40;;;-0.53;100.00;96396.70;647692;212;31567;-74
2022/01/21 02:09:14;;;;;;;0.70;0.52;;;-1.00;1.40;;;-0.61;100.00;96398.53;645347;216;31579;-77
2022/01/21 02:11:56;;;;;;;1.50;0.80;;;-1.00;1.40;;;-0.57;100.00;96396.53;647653;216;31521;-77
2022/01/21 02:14:49;;;;;;;0.50;0.50;;;-1.00;1.40;;;-0.68;100.00;96398.86;624393;226;31862;-74
2022/01/21 02:23:24;;;;;;;0.60;0.60;;;-1.10;1.40;;;-0.62;100.00;96383.63;645753;212;31583;-73
2022/01/21 02:26:11;;;;;;;3.70;0.60;;;-1.00;1.40;;;-0.65;100.00;96386.61;623510;226;31829;-77
2022/01/21 02:28:54;;;;;;;0.90;0.90;;;-1.10;1.40;;;-0.61;100.00;96387.80;652604;212;31545;-78
2022/01/21 02:31:37;;;;;;;0.60;0.60;;;-1.10;1.40;;;-0.55;100.00;96391.41;645597;216;32193;-78
2022/01/21 02:35:51;;;;;;;0.68;0.68;;;-1.10;1.40;;;-0.60;100.00;96376.67;650445;216;32026;-74
2022/01/21 02:38:39;;;;;;;1.10;1.00;;;-1.10;1.40;;;-0.71;100.00;96381.34;646127;212;32664;-78
2022/01/21 02:41:27;;;;;;;0.57;0.57;;;-1.20;1.40;;;-0.77;100.00;96377.58;647803;216;31570;-76
2022/01/21 02:44:17;;;;;;;0.50;0.50;;;-1.20;1.40;;;-0.78;100.00;96383.80;644341;216;31570;-77
2022/01/21 02:47:04;;;;;;;1.00;0.70;;;-1.20;1.40;;;-0.71;100.00;96378.14;621134;226;32194;-77
2022/01/21 02:49:44;;;;;;;0.70;0.30;;;-1.20;1.40;;;-0.84;100.00;96377.84;645175;216;31506;-76
2022/01/21 02:52:40;;;;;;;0.70;0.50;;;-1.30;1.40;;;-0.85;100.00;96381.89;645769;212;31502;-77
2022/01/21 02:55:13;;;;;;;1.60;0.73;;;-1.30;1.40;;;-0.85;100.00;96384.99;620045;222;31818;-77
2022/01/21 02:58:01;;;;;;;0.40;0.40;;;-1.30;1.40;;;-0.97;100.00;96381.31;652182;212;31906;-76
2022/01/21 03:00:51;;;;;;;0.65;0.55;;;-1.40;1.40;;;-0.90;100.00;96380.55;647883;216;31520;-77
2022/01/21 03:03:34;;;;;;;0.90;0.57;;;-1.40;1.40;;;-0.92;100.00;96384.48;650144;216;31586;-77
2022/01/21 03:06:16;;;;;;;1.20;1.10;;;-1.40;1.40;;;-0.86;100.00;96384.74;623228;222;31962;-76
2022/01/21 03:08:57;;;;;;;1.20;0.80;;;-1.30;1.40;;;-0.83;100.00;96392.78;649282;216;31797;-77
2022/01/21 03:11:39;;;;;;;0.68;0.50;;;-1.20;1.40;;;-0.76;100.00;96395.91;645533;216;31682;-77
2022/01/21 03:14:23;;;;;;;0.60;0.40;;;-1.20;1.40;;;-0.82;100.00;96399.95;646328;216;31517;-74
2022/01/21 03:17:06;;;;;;;0.50;0.50;;;-1.20;1.40;;;-0.73;100.00;96404.89;646705;216;31547;-77
2022/01/21 03:19:48;;;;;;;0.90;0.80;;;-1.20;1.40;;;-0.75;100.00;96402.61;651730;212;31536;-77
2022/01/21 03:22:30;;;;;;;1.45;1.35;;;-1.20;1.40;;;-0.77;100.00;96404.14;648719;212;31563;-77
2022/01/21 03:25:14;;;;;;;3.10;1.10;;;-1.20;1.40;;;-0.69;100.00;96411.70;649446;212;31495;-77
2022/01/21 03:27:57;;;;;;;2.30;0.82;;;-1.20;1.40;;;-0.73;100.00;96414.09;646266;212;32145;-77
2022/01/21 03:30:39;;;;;;;1.40;0.73;;;-1.20;1.40;;;-0.72;100.00;96412.49;648078;212;32223;-77
2022/01/21 03:35:53;;;;;;;0.40;0.37;;;-1.20;1.40;;;-0.66;100.00;96403.64;618573;226;32270;-77
2022/01/21 03:38:39;;;;;;;0.50;0.50;;;-1.20;1.40;;;-0.65;100.00;96410.73;645939;216;31617;-74
2022/01/21 03:41:20;;;;;;;0.70;0.30;;;-1.20;1.40;;;-0.70;100.00;96414.75;647874;216;31505;-74
2022/01/21 03:44:08;;;;;;;2.50;0.60;;;-1.20;1.40;;;-0.66;100.00;96419.42;625556;222;31864;-77
2022/01/21 03:46:50;;;;;;;0.60;0.40;;;-1.20;1.40;;;-0.67;100.00;96427.52;648255;216;31717;-77
2022/01/21 03:49:50;;;;;;;0.60;0.60;;;-1.20;1.40;;;-0.58;100.00;96424.88;646866;216;31643;-77
2022/01/21 03:52:28;;;;;;;1.50;0.60;;;-1.20;1.40;;;-0.68;100.00;96432.22;648346;212;31473;-77
2022/01/21 03:55:09;;;;;;;2.72;0.70;;;-1.20;1.40;;;-0.72;100.00;96424.73;646938;216;32120;-77
2022/01/21 03:57:51;;;;;;;3.30;0.40;;;-1.10;1.40;;;-0.71;100.00;96431.59;649068;216;31542;-77
2022/01/21 04:00:36;;;;;;;0.50;0.50;;;-1.20;1.40;;;-0.72;100.00;96420.73;645973;212;31766;-74
2022/01/21 04:03:24;;;;;;;0.40;0.30;;;-1.20;1.40;;;-0.70;100.00;96424.20;650670;216;31475;-77
2022/01/21 04:06:12;;;;;;;0.95;0.52;;;-1.20;1.40;;;-0.76;100.00;96420.81;646705;216;31829;-74
2022/01/21 04:08:59;;;;;;;0.50;0.45;;;-1.20;1.40;;;-0.63;100.00;96418.83;654754;216;31774;-76
2022/01/21 04:11:41;;;;;;;0.40;0.40;;;-1.20;1.40;;;-0.86;100.00;96420.92;645983;212;31533;-77
2022/01/21 04:14:23;;;;;;;0.77;0.50;;;-1.30;1.40;;;-0.80;100.00;96414.55;648528;212;31530;-77
2022/01/21 04:17:05;;;;;;;1.50;1.30;;;-1.30;1.40;;;-0.95;100.00;96415.77;626755;222;31839;-77
2022/01/21 04:19:47;;;;;;;4.00;0.73;;;-1.40;1.40;;;-0.97;100.00;96414.84;652926;212;31829;-76
2022/01/21 04:22:30;;;;;;;2.50;0.90;;;-1.40;1.40;;;-0.95;100.00;96418.19;644412;216;31514;-76
2022/01/21 04:25:12;;;;;;;0.90;0.80;;;-1.40;1.40;;;-0.96;100.00;96426.11;649214;216;31516;-76
2022/01/21 04:27:56;;;;;;;0.62;0.62;;;-1.50;1.40;;;-0.93;100.00;96426.23;646685;216;31521;-77
2022/01/21 04:30:37;;;;;;;0.52;0.52;;;-1.40;1.40;;;-0.91;100.00;96421.42;647657;216;42127;-77
2022/01/21 04:35:51;;;;;;;1.77;0.90;;;-1.40;1.40;;;-1.01;100.00;96425.65;647759;216;31633;-76
2022/01/21 04:38:35;;;;;;;0.70;0.70;;;-1.50;1.40;;;-1.01;100.00;96421.63;646274;216;31615;-77
2022/01/21 04:41:53;;;;;;;0.70;0.60;;;-1.50;1.40;;;-1.00;100.00;96423.60;648669;212;31749;-73
2022/01/21 04:49:47;;;;;;;1.00;0.60;;;-1.60;1.40;;;-1.03;100.00;96422.81;646180;216;31549;-77
2022/01/21 04:52:29;;;;;;;1.20;1.10;;;-1.60;1.40;;;-1.13;100.00;96433.09;617377;226;32060;-77
2022/01/21 04:55:11;;;;;;;1.65;0.90;;;-1.60;1.40;;;-1.10;100.00;96433.83;629527;221;31843;-77
2022/01/21 04:57:53;;;;;;;2.47;0.55;;;-1.60;1.40;;;-1.11;100.00;96434.84;649801;212;31701;-77
2022/01/21 05:00:40;;;;;;;0.50;0.50;;;-1.60;1.40;;;-1.03;100.00;96437.86;649610;212;31509;-74
2022/01/21 05:03:28;;;;;;;0.80;0.80;;;-1.60;1.40;;;-1.00;100.00;96438.19;652002;212;31557;-77
2022/01/21 05:06:16;;;;;;;0.70;0.60;;;-1.50;1.40;;;-0.94;100.00;96442.48;643160;213;31699;-74
2022/01/21 05:09:04;;;;;;;0.50;0.37;;;-1.50;1.40;;;-0.86;100.00;96446.60;649057;212;31563;-78
2022/01/21 05:11:52;;;;;;;0.70;0.70;;;-1.50;1.40;;;-0.85;100.00;96447.43;648884;216;31496;-74
2022/01/21 05:17:24;;;;;;;0.85;0.50;;;-1.40;1.40;;;-0.77;100.00;96455.98;651653;216;31608;-73
2022/01/21 05:20:11;;;;;;;0.70;0.40;;;-1.30;1.40;;;-0.77;100.00;96458.86;647927;216;31581;-77
2022/01/21 05:22:53;;;;;;;0.45;0.32;;;-1.30;1.40;;;-0.81;100.00;96464.09;644442;212;31489;-77
2022/01/21 05:25:36;;;;;;;1.20;1.10;;;-1.20;1.40;;;-0.78;100.00;96472.44;648698;216;31634;-73
2022/01/21 05:28:21;;;;;;;0.80;0.60;;;-1.20;1.40;;;-0.67;100.00;96466.30;648025;216;31564;-75
2022/01/21 05:31:03;;;;;;;0.52;0.35;;;-1.20;1.40;;;-0.72;100.00;96464.27;645135;216;31504;-73
2022/01/21 05:35:57;;;;;;;0.90;0.80;;;-1.20;1.40;;;-0.72;100.00;96463.86;615720;226;31829;-76
2022/01/21 05:38:46;;;;;;;0.80;0.80;;;-1.20;1.40;;;-0.70;100.00;96464.20;647482;216;32230;-78
2022/01/21 05:41:33;;;;;;;1.27;0.82;;;-1.30;1.40;;;-0.69;100.00;96469.05;652976;216;31647;-76
2022/01/21 05:47:17;;;;;;;2.90;0.70;;;-1.20;1.40;;;-0.69;100.00;96482.95;645648;212;31600;-78
2022/01/21 05:50:05;;;;;;;0.60;0.60;;;-1.20;1.40;;;-0.68;100.00;96494.35;617958;226;31916;-76
2022/01/21 05:52:55;;;;;;;1.10;0.88;;;-1.20;1.40;;;-0.73;100.00;96488.30;622879;226;31866;-77
2022/01/21 05:55:40;;;;;;;0.80;0.50;;;-1.20;1.40;;;-0.71;100.00;96495.16;648943;212;32222;-77
2022/01/21 05:58:18;;;;;;;0.80;0.60;;;-1.20;1.40;;;-0.76;100.00;96503.20;648427;212;31960;-76
2022/01/21 06:01:02;;;;;;;0.70;0.70;;;-1.30;1.40;;;-0.77;100.00;96523.96;649164;216;31629;-78
2022/01/21 06:03:50;;;;;;;1.40;0.70;;;-1.30;1.40;;;-0.80;100.00;96518.51;648064;216;31866;-76
2022/01/21 06:06:31;;;;;;;0.40;0.37;;;-1.30;1.40;;;-0.83;100.00;96526.13;642341;216;31682;-75
2022/01/21 06:09:13;;;;;;;1.00;0.90;;;-1.30;1.40;;;-0.82;100.00;96526.28;648611;212;31699;-73
2022/01/21 06:11:55;;;;;;;1.90;0.50;;;-1.30;1.40;;;-0.70;100.00;96525.37;645089;216;31539;-75
2022/01/21 06:14:38;;;;;;;0.40;0.28;;;-1.30;1.40;;;-0.71;100.00;96532.31;617998;226;31864;-76
2022/01/21 06:17:18;;;;;;;0.60;0.40;;;-1.40;1.40;;;-0.68;100.00;96546.01;645616;216;31525;-74
2022/01/21 06:20:08;;;;;;;1.05;0.95;;;-1.40;1.40;;;-0.65;100.00;96550.05;653337;216;31712;-78
2022/01/21 06:22:56;;;;;;;0.70;0.40;;;-1.30;1.40;;;-0.64;100.00;96541.81;643996;212;31966;-74
2022/01/21 06:25:37;;;;;;;0.40;0.40;;;-1.30;1.40;;;-0.63;100.00;96547.05;649466;216;31675;-76
2022/01/21 06:28:19;;;;;;;0.50;0.40;;;-1.30;1.40;;;-0.58;100.00;96541.19;649943;212;31670;-76
2022/01/21 06:31:01;;;;;;;4.70;0.75;;;-1.30;1.40;;;-0.64;100.00;96544.23;644025;212;32013;-73
2022/01/21 06:35:57;;;;;;;1.00;0.90;;;-1.40;1.40;;;-0.57;100.00;96546.80;648880;212;31537;-74
2022/01/21 06:38:39;;;;;;;0.60;0.50;;;-1.40;1.40;;;-0.63;100.00;96552.31;644368;216;31517;-74
2022/01/21 06:41:21;;;;;;;3.00;0.90;;;-1.50;1.40;;;-0.77;100.00;96558.08;653212;216;31516;-75
2022/01/21 06:44:06;;;;;;;0.70;0.50;;;-1.50;1.40;;;-0.90;100.00;96560.18;644781;213;31539;-75
2022/01/21 06:46:47;;;;;;;0.70;0.60;;;-1.60;1.40;;;-0.97;100.00;96565.56;646692;212;31620;-75
2022/01/21 06:49:30;;;;;;;3.10;0.95;;;-1.70;1.40;;;-1.12;100.00;96559.06;648194;216;31508;-74
2022/01/21 06:52:11;;;;;;;2.70;1.20;;;-1.80;1.40;;;-1.25;100.00;96562.11;647679;216;31531;-76
2022/01/21 06:54:59;;;;;;;0.77;0.77;;;-2.00;1.40;;;-1.27;100.00;96573.50;652071;216;31534;-78
2022/01/21 06:57:41;;;;;;;2.50;0.80;;;-1.90;1.40;;;-1.29;100.00;96578.90;653257;216;31549;-77
2022/01/21 07:00:28;;;;;;;1.60;0.95;;;-1.90;1.40;;;-1.43;100.00;96583.88;646888;216;31578;-74
2022/01/21 07:03:16;;;;;;;0.50;0.40;;;-2.00;1.40;;;-1.53;100.00;96583.84;647464;216;31533;-78
2022/01/21 07:06:04;;;;;;;0.80;0.80;;;-2.10;1.40;;;-1.48;100.00;96580.23;646490;216;32323;-74
2022/01/21 07:08:45;;;;;;;1.30;0.70;;;-2.10;1.40;;;-1.45;100.00;96580.20;647784;212;42192;-76
2022/01/21 07:11:27;;;;;;;0.65;0.65;;;-2.00;1.40;;;-1.52;100.00;96580.52;647846;216;31558;-75
2022/01/21 07:14:09;;;;;;;0.70;0.70;;;-2.10;1.40;;;-1.53;100.00;96584.95;648676;212;31506;-74
2022/01/21 07:16:56;;;;;;;3.00;1.60;;;-2.30;1.40;;;-1.73;100.00;96583.81;619324;222;32566;-78
2022/01/21 07:19:44;;;;;;;0.50;0.40;;;-2.40;1.40;;;-1.80;100.00;96585.05;647197;212;32135;-76
2022/01/21 07:22:26;;;;;;;0.60;0.55;;;-2.40;1.40;;;-1.77;100.00;96595.00;642946;216;31577;-76
2022/01/21 07:25:08;;;;;;;1.30;0.90;;;-2.40;1.40;;;-1.70;100.00;96609.33;648220;216;31571;-75
2022/01/21 07:27:53;;;;;;;0.65;0.62;;;-2.20;1.40;;;-1.48;100.00;96615.55;647319;216;31576;-74
2022/01/21 07:30:35;;;;;;;0.80;0.80;;;-2.10;1.40;;;-1.24;100.00;96612.54;646284;212;31797;-74
2022/01/21 07:35:51;;;;;;;0.60;0.60;;;-1.90;1.40;;;-1.42;100.00;96612.08;619220;222;32376;-74
2022/01/21 07:38:33;;;;;;;1.70;0.70;;;-2.00;1.40;;;-1.55;100.00;96617.69;651057;216;31486;-74
2022/01/21 07:41:18;;;;;;;0.77;0.77;;;-2.10;1.40;;;-1.72;100.00;96621.67;646950;216;31622;-75
2022/01/21 07:43:59;;;;;;;0.50;0.50;;;-2.20;1.40;;;-1.74;100.00;96619.56;646081;212;31501;-74
2022/01/21 07:46:47;;;;;;;0.65;0.40;;;-2.20;1.40;;;-1.82;100.00;96614.28;647639;216;32103;-78
2022/01/21 07:49:35;;;;;;;0.68;0.68;;;-2.20;1.40;;;-1.82;100.00;96618.61;648660;212;32095;-77
2022/01/21 07:52:23;;;;;;;0.68;0.68;;;-2.20;1.40;;;-1.74;100.00;96623.74;647965;212;32114;-78
2022/01/21 07:55:10;;;;;;;0.40;0.30;;;-2.30;1.40;;;-1.87;100.00;96614.78;647357;212;31523;-74
2022/01/21 07:57:52;;;;;;;0.60;0.60;;;-2.30;1.40;;;-1.86;100.00;96622.47;648650;216;34068;-75
2022/01/21 08:00:34;;;;;;;0.60;0.60;;;-2.30;1.40;;;-1.83;100.00;96616.34;649476;216;31506;-74
2022/01/21 08:03:16;;;;;;;1.40;0.80;;;-2.20;1.40;;;-1.72;100.00;96620.11;616611;226;31841;-76
2022/01/21 08:05:57;;;;;;;0.80;0.80;;;-2.10;1.40;;;-1.69;100.00;96621.61;643656;216;32089;-76
2022/01/21 08:08:42;;;;;;;1.30;1.20;;;-2.10;1.40;;;-1.66;100.00;96627.97;644989;216;31669;-74
2022/01/21 08:11:23;;;;;;;0.90;0.90;;;-2.10;1.40;;;-1.73;100.00;96628.62;645696;212;31516;-74
2022/01/21 08:14:05;;;;;;;3.30;0.80;;;-2.10;1.40;;;-1.69;100.00;96627.90;647955;212;31601;-74
2022/01/21 08:16:47;;;;;;;2.95;1.15;;;-2.10;1.40;;;-1.73;100.00;96634.97;643684;214;31677;-74
2022/01/21 08:19:32;;;;;;;0.50;0.43;;;-2.20;1.40;;;-1.72;100.00;96622.47;647170;212;31494;-76
2022/01/21 08:22:15;;;;;;;0.70;0.70;;;-2.10;1.40;;;-1.63;100.00;96620.77;647700;216;31575;-78
2022/01/21 08:25:03;;;;;;;1.23;1.15;;;-2.10;1.40;;;-1.51;100.00;96614.44;646496;212;31502;-75
2022/01/21 08:27:50;;;;;;;1.08;1.08;;;-1.90;1.40;;;-1.31;100.00;96612.57;646693;216;31555;-78
2022/01/21 08:30:38;;;;;;;1.00;0.90;;;-1.80;1.40;;;-1.17;100.00;96609.60;646756;212;31550;-77
2022/01/21 08:35:50;;;;;;;1.10;1.00;;;-1.40;1.40;;;-0.90;100.00;96617.57;647259;212;31604;-78
2022/01/21 08:38:38;;;;;;;2.50;0.60;;;-1.20;1.40;;;-0.70;100.00;96619.72;646173;216;32114;-77
2022/01/21 08:41:20;;;;;;;0.75;0.75;;;-1.10;1.40;;;-0.68;100.00;96616.77;647016;216;32713;-77
2022/01/21 08:44:07;;;;;;;1.20;1.10;;;-1.10;1.40;;;-0.55;100.00;96610.03;643352;215;31521;-78
2022/01/21 08:46:55;;;;;;;1.10;0.60;;;-1.10;1.40;;;-0.68;100.00;96611.11;646066;212;42035;-75
2022/01/21 08:49:44;;;;;;;1.30;0.90;;;-1.20;1.40;;;-0.58;100.00;96607.52;646849;216;32227;-78
2022/01/21 08:52:27;;;;;;;4.60;1.00;;;-1.10;1.40;;;-0.43;100.00;96603.42;619941;226;44440;-78
2022/01/21 08:55:08;;;;;;;0.80;0.80;;;-0.90;1.40;;;-0.60;100.00;96609.16;649713;216;31499;-77
2022/01/21 08:57:50;;;;;;;1.90;0.70;;;-1.00;1.40;;;-0.62;100.00;96611.17;621403;222;31893;-78
2022/01/21 09:03:14;;;;;;;0.65;0.52;;;-1.00;1.40;;;-0.65;100.00;96615.91;650249;216;31549;-78
2022/01/21 09:05:56;;;;;;;2.40;1.33;;;-1.10;1.40;;;-0.69;100.00;96615.88;642281;212;31667;-78
2022/01/21 09:08:41;;;;;;;0.98;0.93;;;-1.00;1.40;;;-0.43;100.00;96609.55;645840;216;42788;-75
2022/01/21 09:11:27;;;;;;;1.25;1.00;;;-0.30;1.40;;;0.72;100.00;96598.65;648904;216;31539;-78
2022/01/21 09:14:09;;;;;;;4.20;1.10;;;1.70;1.40;;;2.61;100.00;96602.70;619927;226;32743;-77
2022/01/21 09:16:53;;;;;;;2.60;1.20;;;3.20;1.40;;;3.33;100.00;96600.23;648843;212;31503;-78
2022/01/21 09:19:33;;;;;;;1.70;1.30;;;4.20;1.40;;;3.93;100.00;96604.61;646831;216;31520;-78
2022/01/21 09:22:15;;;;;;;0.93;0.82;;;3.30;1.40;;;4.78;97.55;96601.77;649266;212;31497;-78
2022/01/21 09:24:56;;;;;;;3.30;1.50;;;3.70;1.40;;;3.96;96.48;96613.31;620082;226;32097;-78
2022/01/21 09:27:42;;;;;;;2.30;1.00;;;3.60;1.40;;;4.30;98.01;96610.30;615755;226;31985;-79
2022/01/21 09:30:24;;;;;;;2.45;0.73;;;3.60;1.40;;;5.48;94.77;96611.20;622733;226;31807;-78
2022/01/21 09:35:51;;;;;;;0.70;0.60;;;4.10;1.40;;;5.91;86.15;96620.75;618735;226;32379;-78
2022/01/21 09:38:33;;;;;;;1.33;1.00;;;5.20;1.40;;;6.52;83.47;96625.01;620703;222;32050;-79
2022/01/21 09:41:21;;;;;;;1.73;0.80;;;5.50;1.40;;;4.84;81.57;96625.40;645696;216;31498;-76
2022/01/21 09:44:15;;;;;;;1.37;0.80;;;2.70;1.40;;;3.49;89.91;96626.75;619785;226;31910;-77
2022/01/21 09:49:35;;;;;;;2.50;1.33;;;1.20;1.40;;;1.95;100.00;96635.03;647079;216;31701;-79
2022/01/21 09:52:18;;;;;;;0.60;0.60;;;1.20;1.40;;;1.75;100.00;96650.42;649554;212;31498;-78
2022/01/21 09:55:03;;;;;;;0.90;0.65;;;0.40;1.40;;;1.41;100.00;96652.98;645851;212;31672;-78
2022/01/21 09:57:51;;;;;;;0.68;0.65;;;0.20;1.40;;;1.02;100.00;96657.39;646951;216;31746;-75
2022/01/21 10:00:39;;;;;;;0.70;0.60;;;0.00;1.40;;;0.55;100.00;96647.05;618633;226;31926;-78
2022/01/21 10:03:26;;;;;;;0.73;0.70;;;-0.40;1.40;;;0.46;100.00;96657.25;646903;216;31595;-76
2022/01/21 10:06:11;;;;;;;1.85;0.70;;;-0.50;1.40;;;0.95;100.00;96663.40;644449;212;31715;-78
2022/01/21 10:11:39;;;;;;;1.05;0.95;;;3.00;1.40;;;2.23;100.00;96654.17;646921;212;31615;-77
2022/01/21 10:14:27;;;;;;;1.05;0.95;;;1.80;1.40;;;4.14;99.79;96646.53;648381;216;31533;-78
2022/01/21 10:17:10;;;;;;;4.30;1.50;;;4.00;1.40;;;5.72;90.65;96644.98;646280;216;42711;-77
2022/01/21 10:22:57;;;;;;;0.95;0.93;;;1.70;1.40;;;2.93;93.67;96661.72;646244;216;31599;-74
2022/01/21 10:25:40;;;;;;;1.20;1.10;;;0.80;1.40;;;1.93;100.00;96664.70;618533;222;42568;-74
2022/01/21 10:28:21;;;;;;;1.30;0.90;;;0.50;1.40;;;2.16;100.00;96662.38;647175;212;31549;-77
2022/01/21 10:31:13;;;;;;;2.78;1.30;;;2.20;1.40;;;2.93;100.00;96653.50;646528;216;31613;-75
2022/01/21 10:36:12;;;;;;;2.15;1.00;;;2.70;1.40;;;4.18;97.72;96654.89;618208;226;31907;-77
2022/01/21 10:38:56;;;;;;;3.62;1.10;;;3.50;1.40;;;3.62;94.48;96662.66;620271;226;31963;-80
2022/01/21 10:41:35;;;;;;;0.80;0.70;;;1.70;1.40;;;4.26;88.87;96664.14;619216;222;43196;-80
2022/01/21 10:44:17;;;;;;;0.90;0.80;;;3.10;1.40;;;3.96;89.85;96668.46;647958;216;31474;-79
2022/01/21 10:47:10;;;;;;;1.02;0.90;;;3.30;1.40;;;3.02;89.07;96671.90;646586;212;42245;-76
2022/01/21 10:50:04;;;;;;;1.70;0.70;;;1.40;1.40;;;2.40;94.54;96667.41;647882;212;31537;-79
2022/01/21 10:52:51;;;;;;;1.60;0.80;;;1.60;1.40;;;2.51;96.44;96663.31;621228;222;31984;-79
2022/01/21 10:55:35;;;;;;;1.00;1.00;;;1.10;1.40;;;2.07;96.83;96656.91;631575;222;31701;-79
2022/01/21 10:58:24;;;;;;;1.85;0.93;;;0.70;1.40;;;1.37;100.00;96653.82;646013;216;31510;-77
2022/01/21 11:01:08;;;;;;;0.80;0.80;;;0.30;1.40;;;1.20;100.00;96663.17;647041;212;31535;-76
2022/01/21 11:03:58;;;;;;;2.30;0.90;;;0.40;1.40;;;0.89;100.00;96669.14;645858;216;31521;-77
2022/01/21 11:06:50;;;;;;;1.55;0.80;;;0.20;1.40;;;1.02;100.00;96660.08;615445;222;32211;-76
2022/01/21 11:09:30;;;;;;;1.23;1.12;;;0.20;1.40;;;1.20;100.00;96660.02;645837;216;31501;-77
2022/01/21 11:12:18;;;;;;;0.98;0.85;;;0.40;1.40;;;1.29;100.00;96661.55;618626;222;32581;-79
2022/01/21 11:17:44;;;;;;;2.30;0.80;;;0.40;1.40;;;2.32;100.00;96669.69;648219;216;31565;-78
2022/01/21 11:20:32;;;;;;;2.15;0.60;;;3.00;1.40;;;4.86;87.81;96649.66;647813;212;31575;-78
2022/01/21 11:23:21;;;;;;;1.00;0.80;;;5.20;1.40;;;4.85;82.33;96647.12;647223;216;31527;-77
2022/01/21 11:26:08;;;;;;;2.05;0.98;;;4.80;1.40;;;4.56;80.27;96643.67;618945;222;32493;-78
2022/01/21 11:28:49;;;;;;;0.80;0.70;;;3.80;1.40;;;4.45;80.61;96641.20;647114;212;31578;-78
2022/01/21 11:31:31;;;;;;;1.80;0.70;;;3.00;1.40;;;3.31;85.60;96634.69;647745;212;31453;-79
2022/01/21 11:35:57;;;;;;;0.82;0.80;;;1.20;1.40;;;2.44;91.99;96637.27;645924;212;42184;-77
2022/01/21 11:38:38;;;;;;;0.80;0.57;;;0.90;1.40;;;1.61;98.22;96634.51;647823;216;31505;-76
2022/01/21 11:41:26;;;;;;;1.12;0.90;;;0.40;1.40;;;1.25;100.00;96628.19;621684;225;32682;-78
2022/01/21 11:44:14;;;;;;;3.20;0.90;;;0.30;1.40;;;1.21;100.00;96630.20;646093;216;32111;-76
2022/01/21 11:47:02;;;;;;;1.70;1.00;;;0.40;1.40;;;1.30;98.03;96629.69;647761;216;31637;-78
2022/01/21 11:49:41;;;;;;;1.52;1.00;;;0.50;1.40;;;1.42;96.60;96621.02;648112;216;31517;-78
2022/01/21 11:52:24;;;;;;;0.70;0.60;;;0.50;1.40;;;1.09;94.20;96625.92;646675;216;31762;-77
2022/01/21 11:55:06;;;;;;;4.00;0.80;;;0.20;1.40;;;0.69;99.17;96624.90;645372;216;31776;-74
2022/01/21 11:57:51;;;;;;;2.12;0.55;;;0.00;1.40;;;0.56;100.00;96623.66;646220;216;32107;-73
2022/01/21 12:00:34;;;;;;;2.42;1.23;;;0.00;1.40;;;0.71;100.00;96624.66;646713;216;42660;-78
2022/01/21 12:03:14;;;;;;;0.90;0.50;;;0.00;1.40;;;0.48;100.00;96615.37;646461;212;31730;-78
2022/01/21 12:05:58;;;;;;;1.20;1.10;;;0.00;1.40;;;0.52;100.00;96612.33;641059;212;32675;-78
2022/01/21 12:08:46;;;;;;;0.57;0.57;;;0.00;1.40;;;0.81;100.00;96607.64;646590;216;31557;-76
2022/01/21 12:11:30;;;;;;;1.10;0.80;;;0.60;1.40;;;1.16;100.00;96603.53;646743;212;31567;-74
2022/01/21 12:16:59;;;;;;;3.65;0.90;;;1.00;1.40;;;1.99;100.00;96583.70;618244;222;31858;-76
2022/01/21 12:19:37;;;;;;;1.20;0.90;;;2.40;1.40;;;2.62;97.36;96582.83;645605;212;31552;-76
2022/01/21 12:23:48;;;;;;;2.80;0.93;;;3.20;1.40;;;3.49;90.53;96582.74;647171;216;31539;-75
2022/01/21 12:26:33;;;;;;;2.75;0.90;;;3.20;1.40;;;3.36;88.49;96584.95;646490;212;31536;-75
2022/01/21 12:31:54;;;;;;;2.53;1.20;;;3.30;1.40;;;3.40;88.77;96597.38;647039;216;31507;-77
2022/01/21 12:36:00;;;;;;;1.02;0.80;;;2.40;1.40;;;3.27;94.13;96585.56;645929;212;31671;-74
2022/01/21 12:41:48;;;;;;;0.62;0.62;;;2.10;1.40;;;2.11;97.10;96578.80;647088;212;31646;-75
2022/01/21 12:44:37;;;;;;;1.40;1.00;;;1.60;1.40;;;2.15;99.19;96584.95;638367;217;31836;-77
2022/01/21 12:47:30;;;;;;;0.70;0.68;;;2.40;1.40;;;2.66;96.64;96585.86;645572;216;31607;-75
2022/01/21 12:50:31;;;;;;;2.28;1.33;;;2.10;1.40;;;2.77;94.73;96576.47;619158;222;32003;-76
2022/01/21 12:53:22;;;;;;;3.62;1.40;;;2.90;1.40;;;2.97;92.11;96581.83;619192;226;31953;-77
2022/01/21 12:56:03;;;;;;;0.82;0.82;;;2.90;1.40;;;3.00;89.55;96574.93;647174;216;43005;-75
2022/01/21 12:58:45;;;;;;;1.55;1.33;;;3.10;1.40;;;2.82;91.26;96576.03;646397;212;32144;-75
2022/01/21 13:01:27;;;;;;;0.98;0.90;;;2.60;1.40;;;3.14;89.67;96570.48;645485;216;42218;-77
2022/01/21 13:04:37;;;;;;;3.40;0.93;;;2.90;1.40;;;3.44;88.79;96555.88;650585;212;31868;-77
2022/01/21 13:07:38;;;;;;;1.90;1.10;;;3.10;1.40;;;3.03;89.56;96571.59;637497;216;31847;-76
2022/01/21 13:10:26;;;;;;;1.10;1.00;;;2.80;1.40;;;2.38;91.93;96583.02;622869;226;31806;-78
2022/01/21 13:13:17;;;;;;;0.90;0.80;;;2.00;1.40;;;2.43;95.62;96587.89;646864;212;31574;-77